sensor_id;sensor_type;location;lat;lon;timestamp;temperature;humidity
44117;DHT22;29781;49.480;8.512;2023-10-13T00:00:29;18.20;99.90
44117;DHT22;29781;49.480;8.512;2023-10-13T00:03:13;18.20;99.90
44117;DHT22;29781;49.480;8.512;2023-10-13T00:05:42;18.20;99.90
44117;DHT22;29781;49.480;8.512;2023-10-13T00:08:08;18.20;99.90
44117;DHT22;29781;49.480;8.512;2023-10-13T00:10:34;18.20;99.90
44117;DHT22;29781;49.480;8.512;2023-10-13T00:13:00;18.20;99.90
44117;DHT22;29781;49.480;8.512;2023-10-13T00:15:47;18.20;99.90
44117;DHT22;29781;49.480;8.512;2023-10-13T00:18:31;18.20;99.90
44117;DHT22;29781;49.480;8.512;2023-10-13T00:21:00;18.20;99.90
44117;DHT22;29781;49.480;8.512;2023-10-13T00:23:26;18.30;99.90
44117;DHT22;29781;49.480;8.512;2023-10-13T00:25:58;18.30;99.90
44117;DHT22;29781;49.480;8.512;2023-10-13T00:28:25;18.30;99.90
44117;DHT22;29781;49.480;8.512;2023-10-13T00:30:52;18.30;99.90
44117;DHT22;29781;49.480;8.512;2023-10-13T00:33:24;18.30;99.90
44117;DHT22;29781;49.480;8.512;2023-10-13T00:35:51;18.30;99.90
44117;DHT22;29781;49.480;8.512;2023-10-13T00:38:23;18.30;99.90
44117;DHT22;29781;49.480;8.512;2023-10-13T00:40:49;18.40;99.90
44117;DHT22;29781;49.480;8.512;2023-10-13T00:43:18;18.40;99.90
44117;DHT22;29781;49.480;8.512;2023-10-13T00:45:45;18.40;99.90
44117;DHT22;29781;49.480;8.512;2023-10-13T00:48:32;18.30;99.90
44117;DHT22;29781;49.480;8.512;2023-10-13T00:51:03;18.30;99.90
44117;DHT22;29781;49.480;8.512;2023-10-13T00:53:32;18.40;99.90
44117;DHT22;29781;49.480;8.512;2023-10-13T00:56:10;18.40;99.90
44117;DHT22;29781;49.480;8.512;2023-10-13T00:58:47;18.40;99.90
44117;DHT22;29781;49.480;8.512;2023-10-13T01:01:15;18.40;99.90
44117;DHT22;29781;49.480;8.512;2023-10-13T01:03:50;18.40;99.90
44117;DHT22;29781;49.480;8.512;2023-10-13T01:06:21;18.40;99.90
44117;DHT22;29781;49.480;8.512;2023-10-13T01:09:03;18.40;99.90
44117;DHT22;29781;49.480;8.512;2023-10-13T01:11:46;18.50;99.90
44117;DHT22;29781;49.480;8.512;2023-10-13T01:14:19;18.40;99.90
44117;DHT22;29781;49.480;8.512;2023-10-13T01:16:47;18.40;99.90
44117;DHT22;29781;49.480;8.512;2023-10-13T01:19:14;18.40;99.90
44117;DHT22;29781;49.480;8.512;2023-10-13T01:21:42;18.30;99.90
44117;DHT22;29781;49.480;8.512;2023-10-13T01:24:10;18.30;99.90
44117;DHT22;29781;49.480;8.512;2023-10-13T01:26:38;18.20;99.90
44117;DHT22;29781;49.480;8.512;2023-10-13T01:29:07;18.20;99.90
44117;DHT22;29781;49.480;8.512;2023-10-13T01:31:43;18.30;99.90
44117;DHT22;29781;49.480;8.512;2023-10-13T01:34:16;18.30;99.90
44117;DHT22;29781;49.480;8.512;2023-10-13T01:36:51;18.20;99.90
44117;DHT22;29781;49.480;8.512;2023-10-13T01:39:19;18.30;99.90
44117;DHT22;29781;49.480;8.512;2023-10-13T01:41:46;18.40;99.90
44117;DHT22;29781;49.480;8.512;2023-10-13T01:44:24;18.30;99.90
44117;DHT22;29781;49.480;8.512;2023-10-13T01:46:49;18.20;99.90
44117;DHT22;29781;49.480;8.512;2023-10-13T01:49:16;18.20;99.90
44117;DHT22;29781;49.480;8.512;2023-10-13T01:51:42;18.20;99.90
44117;DHT22;29781;49.480;8.512;2023-10-13T01:54:08;18.20;99.90
44117;DHT22;29781;49.480;8.512;2023-10-13T01:56:38;18.20;99.90
44117;DHT22;29781;49.480;8.512;2023-10-13T01:59:08;18.30;99.90
44117;DHT22;29781;49.480;8.512;2023-10-13T02:01:34;18.20;99.90
44117;DHT22;29781;49.480;8.512;2023-10-13T02:04:01;18.20;99.90
44117;DHT22;29781;49.480;8.512;2023-10-13T02:06:31;18.20;99.90
44117;DHT22;29781;49.480;8.512;2023-10-13T02:09:02;18.20;99.90
44117;DHT22;29781;49.480;8.512;2023-10-13T02:11:37;18.20;99.90
44117;DHT22;29781;49.480;8.512;2023-10-13T02:14:03;18.20;99.90
44117;DHT22;29781;49.480;8.512;2023-10-13T02:16:29;18.20;99.90
44117;DHT22;29781;49.480;8.512;2023-10-13T02:18:56;18.20;99.90
44117;DHT22;29781;49.480;8.512;2023-10-13T02:21:23;18.20;99.90
44117;DHT22;29781;49.480;8.512;2023-10-13T02:23:58;18.20;99.90
44117;DHT22;29781;49.480;8.512;2023-10-13T02:26:30;18.20;99.90
44117;DHT22;29781;49.480;8.512;2023-10-13T02:29:01;18.20;99.90
44117;DHT22;29781;49.480;8.512;2023-10-13T02:31:35;18.10;99.90
44117;DHT22;29781;49.480;8.512;2023-10-13T02:34:00;18.10;99.90
44117;DHT22;29781;49.480;8.512;2023-10-13T02:36:26;18.10;99.90
44117;DHT22;29781;49.480;8.512;2023-10-13T02:39:14;18.10;99.90
44117;DHT22;29781;49.480;8.512;2023-10-13T02:41:41;18.10;99.90
44117;DHT22;29781;49.480;8.512;2023-10-13T02:44:13;18.10;99.90
44117;DHT22;29781;49.480;8.512;2023-10-13T02:46:56;18.10;99.90
44117;DHT22;29781;49.480;8.512;2023-10-13T02:49:25;18.10;99.90
44117;DHT22;29781;49.480;8.512;2023-10-13T02:51:52;18.10;99.90
44117;DHT22;29781;49.480;8.512;2023-10-13T02:54:18;18.10;99.90
44117;DHT22;29781;49.480;8.512;2023-10-13T02:56:44;18.10;99.90
44117;DHT22;29781;49.480;8.512;2023-10-13T02:59:26;18.10;99.90
44117;DHT22;29781;49.480;8.512;2023-10-13T03:02:06;18.00;99.90
44117;DHT22;29781;49.480;8.512;2023-10-13T03:04:47;18.10;99.90
44117;DHT22;29781;49.480;8.512;2023-10-13T03:07:13;18.00;99.90
44117;DHT22;29781;49.480;8.512;2023-10-13T03:09:44;18.00;99.90
44117;DHT22;29781;49.480;8.512;2023-10-13T03:12:17;18.00;99.90
44117;DHT22;29781;49.480;8.512;2023-10-13T03:14:43;18.00;99.90
44117;DHT22;29781;49.480;8.512;2023-10-13T03:17:14;18.00;99.90
44117;DHT22;29781;49.480;8.512;2023-10-13T03:19:43;18.00;99.90
44117;DHT22;29781;49.480;8.512;2023-10-13T03:22:15;18.00;99.90
44117;DHT22;29781;49.480;8.512;2023-10-13T03:24:43;18.00;99.90
44117;DHT22;29781;49.480;8.512;2023-10-13T03:27:13;18.00;99.90
44117;DHT22;29781;49.480;8.512;2023-10-13T03:29:42;18.00;99.90
44117;DHT22;29781;49.480;8.512;2023-10-13T03:32:20;18.00;99.90
44117;DHT22;29781;49.480;8.512;2023-10-13T03:34:46;17.90;99.90
44117;DHT22;29781;49.480;8.512;2023-10-13T03:37:24;17.90;99.90
44117;DHT22;29781;49.480;8.512;2023-10-13T03:40:11;17.90;99.90
44117;DHT22;29781;49.480;8.512;2023-10-13T03:42:56;17.90;99.90
44117;DHT22;29781;49.480;8.512;2023-10-13T03:45:36;17.90;99.90
44117;DHT22;29781;49.480;8.512;2023-10-13T03:48:09;17.90;99.90
44117;DHT22;29781;49.480;8.512;2023-10-13T03:50:41;17.80;99.90
44117;DHT22;29781;49.480;8.512;2023-10-13T03:53:14;17.90;99.90
44117;DHT22;29781;49.480;8.512;2023-10-13T03:55:41;17.90;99.90
44117;DHT22;29781;49.480;8.512;2023-10-13T03:58:16;17.90;99.90
44117;DHT22;29781;49.480;8.512;2023-10-13T04:00:42;17.90;99.90
44117;DHT22;29781;49.480;8.512;2023-10-13T04:03:08;17.90;99.90
44117;DHT22;29781;49.480;8.512;2023-10-13T04:05:34;17.90;99.90
44117;DHT22;29781;49.480;8.512;2023-10-13T04:08:26;17.90;99.90
44117;DHT22;29781;49.480;8.512;2023-10-13T04:10:53;17.90;99.90
44117;DHT22;29781;49.480;8.512;2023-10-13T04:13:19;17.90;99.90
44117;DHT22;29781;49.480;8.512;2023-10-13T04:16:06;17.90;99.90
44117;DHT22;29781;49.480;8.512;2023-10-13T04:18:41;17.80;99.90
44117;DHT22;29781;49.480;8.512;2023-10-13T04:21:32;17.80;99.90
44117;DHT22;29781;49.480;8.512;2023-10-13T04:24:08;17.90;99.90
44117;DHT22;29781;49.480;8.512;2023-10-13T04:26:48;17.90;99.90
44117;DHT22;29781;49.480;8.512;2023-10-13T04:29:32;18.00;99.90
44117;DHT22;29781;49.480;8.512;2023-10-13T04:32:26;17.90;99.90
44117;DHT22;29781;49.480;8.512;2023-10-13T04:34:56;17.90;99.90
44117;DHT22;29781;49.480;8.512;2023-10-13T04:37:34;17.90;99.90
44117;DHT22;29781;49.480;8.512;2023-10-13T04:40:14;17.80;99.90
44117;DHT22;29781;49.480;8.512;2023-10-13T04:42:40;17.80;99.90
44117;DHT22;29781;49.480;8.512;2023-10-13T04:45:26;17.80;99.90
44117;DHT22;29781;49.480;8.512;2023-10-13T04:47:58;17.70;99.90
44117;DHT22;29781;49.480;8.512;2023-10-13T04:50:47;17.70;99.90
44117;DHT22;29781;49.480;8.512;2023-10-13T04:53:17;17.60;99.90
44117;DHT22;29781;49.480;8.512;2023-10-13T04:56:00;17.60;99.90
44117;DHT22;29781;49.480;8.512;2023-10-13T04:58:32;17.60;99.90
44117;DHT22;29781;49.480;8.512;2023-10-13T05:01:04;17.60;99.90
44117;DHT22;29781;49.480;8.512;2023-10-13T05:03:49;17.60;99.90
44117;DHT22;29781;49.480;8.512;2023-10-13T05:06:33;17.60;99.90
44117;DHT22;29781;49.480;8.512;2023-10-13T05:09:11;17.60;99.90
44117;DHT22;29781;49.480;8.512;2023-10-13T05:11:56;17.60;99.90
44117;DHT22;29781;49.480;8.512;2023-10-13T05:14:40;17.70;99.90
44117;DHT22;29781;49.480;8.512;2023-10-13T05:17:24;17.70;99.90
44117;DHT22;29781;49.480;8.512;2023-10-13T05:20:08;17.60;99.90
44117;DHT22;29781;49.480;8.512;2023-10-13T05:22:52;17.60;99.90
44117;DHT22;29781;49.480;8.512;2023-10-13T05:25:37;17.60;99.90
44117;DHT22;29781;49.480;8.512;2023-10-13T05:28:22;17.60;99.90
44117;DHT22;29781;49.480;8.512;2023-10-13T05:31:06;17.60;99.90
44117;DHT22;29781;49.480;8.512;2023-10-13T05:33:51;17.60;99.90
44117;DHT22;29781;49.480;8.512;2023-10-13T05:36:35;17.60;99.90
44117;DHT22;29781;49.480;8.512;2023-10-13T05:39:19;17.60;99.90
44117;DHT22;29781;49.480;8.512;2023-10-13T05:42:04;17.60;99.90
44117;DHT22;29781;49.480;8.512;2023-10-13T05:44:49;17.60;99.90
44117;DHT22;29781;49.480;8.512;2023-10-13T05:47:48;17.60;99.90
44117;DHT22;29781;49.480;8.512;2023-10-13T05:50:19;17.60;99.90
44117;DHT22;29781;49.480;8.512;2023-10-13T05:52:48;17.60;99.90
44117;DHT22;29781;49.480;8.512;2023-10-13T05:55:27;17.60;99.90
44117;DHT22;29781;49.480;8.512;2023-10-13T05:58:12;17.60;99.90
44117;DHT22;29781;49.480;8.512;2023-10-13T06:00:57;17.60;99.90
44117;DHT22;29781;49.480;8.512;2023-10-13T06:03:41;17.60;99.90
44117;DHT22;29781;49.480;8.512;2023-10-13T06:06:25;17.60;99.90
44117;DHT22;29781;49.480;8.512;2023-10-13T06:09:09;17.60;99.90
44117;DHT22;29781;49.480;8.512;2023-10-13T06:11:53;17.60;99.90
44117;DHT22;29781;49.480;8.512;2023-10-13T06:14:37;17.60;99.90
44117;DHT22;29781;49.480;8.512;2023-10-13T06:17:22;17.60;99.90
44117;DHT22;29781;49.480;8.512;2023-10-13T06:20:06;17.60;99.90
44117;DHT22;29781;49.480;8.512;2023-10-13T06:22:51;17.60;99.90
44117;DHT22;29781;49.480;8.512;2023-10-13T06:25:35;17.70;99.90
44117;DHT22;29781;49.480;8.512;2023-10-13T06:28:19;17.70;99.90
44117;DHT22;29781;49.480;8.512;2023-10-13T06:31:04;17.80;99.90
44117;DHT22;29781;49.480;8.512;2023-10-13T06:33:34;17.80;99.90
44117;DHT22;29781;49.480;8.512;2023-10-13T06:36:02;17.90;99.90
44117;DHT22;29781;49.480;8.512;2023-10-13T06:38:28;18.00;99.90
44117;DHT22;29781;49.480;8.512;2023-10-13T06:41:07;18.10;99.90
44117;DHT22;29781;49.480;8.512;2023-10-13T06:43:34;18.20;99.90
44117;DHT22;29781;49.480;8.512;2023-10-13T06:46:09;18.20;99.90
44117;DHT22;29781;49.480;8.512;2023-10-13T06:48:40;18.30;99.90
44117;DHT22;29781;49.480;8.512;2023-10-13T06:51:06;18.40;99.90
44117;DHT22;29781;49.480;8.512;2023-10-13T06:53:48;18.40;99.90
44117;DHT22;29781;49.480;8.512;2023-10-13T06:56:17;18.40;99.90
44117;DHT22;29781;49.480;8.512;2023-10-13T06:58:56;18.40;99.90
44117;DHT22;29781;49.480;8.512;2023-10-13T07:01:26;18.50;99.90
44117;DHT22;29781;49.480;8.512;2023-10-13T07:03:52;18.50;99.90
44117;DHT22;29781;49.480;8.512;2023-10-13T07:06:29;18.50;99.90
44117;DHT22;29781;49.480;8.512;2023-10-13T07:08:56;18.50;99.90
44117;DHT22;29781;49.480;8.512;2023-10-13T07:11:26;18.50;99.90
44117;DHT22;29781;49.480;8.512;2023-10-13T07:14:04;18.50;99.90
44117;DHT22;29781;49.480;8.512;2023-10-13T07:16:43;18.50;99.90
44117;DHT22;29781;49.480;8.512;2023-10-13T07:19:13;18.50;99.90
44117;DHT22;29781;49.480;8.512;2023-10-13T07:21:43;18.50;99.90
44117;DHT22;29781;49.480;8.512;2023-10-13T07:24:13;18.50;99.90
44117;DHT22;29781;49.480;8.512;2023-10-13T07:26:39;18.60;99.90
44117;DHT22;29781;49.480;8.512;2023-10-13T07:29:09;18.60;99.90
44117;DHT22;29781;49.480;8.512;2023-10-13T07:31:37;18.60;99.90
44117;DHT22;29781;49.480;8.512;2023-10-13T07:34:05;18.60;99.90
44117;DHT22;29781;49.480;8.512;2023-10-13T07:36:39;18.60;99.90
44117;DHT22;29781;49.480;8.512;2023-10-13T07:39:05;18.60;99.90
44117;DHT22;29781;49.480;8.512;2023-10-13T07:41:49;18.60;99.90
44117;DHT22;29781;49.480;8.512;2023-10-13T07:44:40;18.70;99.90
44117;DHT22;29781;49.480;8.512;2023-10-13T07:47:11;18.80;99.90
44117;DHT22;29781;49.480;8.512;2023-10-13T07:49:38;18.90;99.90
44117;DHT22;29781;49.480;8.512;2023-10-13T07:52:12;19.10;99.90
44117;DHT22;29781;49.480;8.512;2023-10-13T07:54:48;19.20;99.90
44117;DHT22;29781;49.480;8.512;2023-10-13T07:57:32;19.30;99.90
44117;DHT22;29781;49.480;8.512;2023-10-13T07:59:58;19.40;99.90
44117;DHT22;29781;49.480;8.512;2023-10-13T08:02:37;19.50;99.90
44117;DHT22;29781;49.480;8.512;2023-10-13T08:05:18;19.60;99.90
44117;DHT22;29781;49.480;8.512;2023-10-13T08:08:05;19.70;99.90
44117;DHT22;29781;49.480;8.512;2023-10-13T08:10:40;19.80;99.90
44117;DHT22;29781;49.480;8.512;2023-10-13T08:13:07;19.90;99.90
44117;DHT22;29781;49.480;8.512;2023-10-13T08:15:40;20.00;99.90
44117;DHT22;29781;49.480;8.512;2023-10-13T08:18:12;20.10;99.90
44117;DHT22;29781;49.480;8.512;2023-10-13T08:20:45;20.10;99.90
44117;DHT22;29781;49.480;8.512;2023-10-13T08:23:11;20.20;99.90
44117;DHT22;29781;49.480;8.512;2023-10-13T08:25:41;20.30;99.90
44117;DHT22;29781;49.480;8.512;2023-10-13T08:28:25;20.40;99.90
44117;DHT22;29781;49.480;8.512;2023-10-13T08:31:05;20.60;99.90
44117;DHT22;29781;49.480;8.512;2023-10-13T08:33:40;20.70;99.90
44117;DHT22;29781;49.480;8.512;2023-10-13T08:36:12;20.70;99.90
44117;DHT22;29781;49.480;8.512;2023-10-13T08:38:52;20.80;99.90
44117;DHT22;29781;49.480;8.512;2023-10-13T08:41:20;20.90;99.90
44117;DHT22;29781;49.480;8.512;2023-10-13T08:43:50;21.20;99.90
44117;DHT22;29781;49.480;8.512;2023-10-13T08:46:17;21.60;99.90
44117;DHT22;29781;49.480;8.512;2023-10-13T08:48:57;21.70;99.90
44117;DHT22;29781;49.480;8.512;2023-10-13T08:51:41;21.80;99.90
44117;DHT22;29781;49.480;8.512;2023-10-13T08:54:15;21.70;99.90
44117;DHT22;29781;49.480;8.512;2023-10-13T08:57:01;21.70;99.90
44117;DHT22;29781;49.480;8.512;2023-10-13T08:59:55;21.80;99.90
44117;DHT22;29781;49.480;8.512;2023-10-13T09:02:22;21.90;99.90
44117;DHT22;29781;49.480;8.512;2023-10-13T09:05:09;21.90;99.90
44117;DHT22;29781;49.480;8.512;2023-10-13T09:07:54;21.90;99.90
44117;DHT22;29781;49.480;8.512;2023-10-13T09:10:23;21.90;99.90
44117;DHT22;29781;49.480;8.512;2023-10-13T09:13:10;21.90;99.90
44117;DHT22;29781;49.480;8.512;2023-10-13T09:15:44;22.00;99.90
44117;DHT22;29781;49.480;8.512;2023-10-13T09:18:30;22.20;99.90
44117;DHT22;29781;49.480;8.512;2023-10-13T09:21:11;22.30;99.90
44117;DHT22;29781;49.480;8.512;2023-10-13T09:24:00;22.70;99.90
44117;DHT22;29781;49.480;8.512;2023-10-13T09:26:45;22.90;99.90
44117;DHT22;29781;49.480;8.512;2023-10-13T09:29:20;22.90;99.90
44117;DHT22;29781;49.480;8.512;2023-10-13T09:31:47;23.00;99.90
44117;DHT22;29781;49.480;8.512;2023-10-13T09:34:22;23.20;99.90
44117;DHT22;29781;49.480;8.512;2023-10-13T09:36:49;23.40;99.90
44117;DHT22;29781;49.480;8.512;2023-10-13T09:39:25;23.70;99.90
44117;DHT22;29781;49.480;8.512;2023-10-13T09:42:05;23.80;99.90
44117;DHT22;29781;49.480;8.512;2023-10-13T09:44:36;23.70;99.90
44117;DHT22;29781;49.480;8.512;2023-10-13T09:47:03;23.60;99.90
44117;DHT22;29781;49.480;8.512;2023-10-13T09:49:39;23.60;99.90
44117;DHT22;29781;49.480;8.512;2023-10-13T09:52:15;23.60;99.90
44117;DHT22;29781;49.480;8.512;2023-10-13T09:55:03;23.60;99.90
44117;DHT22;29781;49.480;8.512;2023-10-13T09:57:37;23.90;99.90
44117;DHT22;29781;49.480;8.512;2023-10-13T10:00:12;24.00;99.90
44117;DHT22;29781;49.480;8.512;2023-10-13T10:02:55;23.80;99.90
44117;DHT22;29781;49.480;8.512;2023-10-13T10:05:29;23.80;99.90
44117;DHT22;29781;49.480;8.512;2023-10-13T10:07:59;24.10;99.90
44117;DHT22;29781;49.480;8.512;2023-10-13T10:10:56;24.10;99.90
44117;DHT22;29781;49.480;8.512;2023-10-13T10:16:52;23.90;99.90
44117;DHT22;29781;49.480;8.512;2023-10-13T10:19:31;24.10;99.90
44117;DHT22;29781;49.480;8.512;2023-10-13T10:22:02;24.20;99.90
44117;DHT22;29781;49.480;8.512;2023-10-13T10:24:43;24.30;99.90
44117;DHT22;29781;49.480;8.512;2023-10-13T10:27:10;24.40;99.90
44117;DHT22;29781;49.480;8.512;2023-10-13T10:29:52;24.30;99.90
44117;DHT22;29781;49.480;8.512;2023-10-13T10:32:17;24.30;99.90
44117;DHT22;29781;49.480;8.512;2023-10-13T10:34:44;24.50;99.90
44117;DHT22;29781;49.480;8.512;2023-10-13T10:37:11;24.70;99.90
44117;DHT22;29781;49.480;8.512;2023-10-13T10:39:37;24.90;99.90
44117;DHT22;29781;49.480;8.512;2023-10-13T10:42:13;25.10;99.90
44117;DHT22;29781;49.480;8.512;2023-10-13T10:44:44;25.30;99.90
44117;DHT22;29781;49.480;8.512;2023-10-13T10:47:14;25.30;99.90
44117;DHT22;29781;49.480;8.512;2023-10-13T10:50:02;25.10;99.90
44117;DHT22;29781;49.480;8.512;2023-10-13T10:52:45;24.90;99.90
44117;DHT22;29781;49.480;8.512;2023-10-13T10:55:12;24.80;99.90
44117;DHT22;29781;49.480;8.512;2023-10-13T10:57:39;24.70;99.90
44117;DHT22;29781;49.480;8.512;2023-10-13T11:00:20;24.70;99.90
44117;DHT22;29781;49.480;8.512;2023-10-13T11:02:57;24.80;99.90
44117;DHT22;29781;49.480;8.512;2023-10-13T11:05:25;25.00;99.90
44117;DHT22;29781;49.480;8.512;2023-10-13T11:07:58;25.20;99.90
44117;DHT22;29781;49.480;8.512;2023-10-13T11:10:23;25.20;99.90
44117;DHT22;29781;49.480;8.512;2023-10-13T11:12:58;25.30;99.90
44117;DHT22;29781;49.480;8.512;2023-10-13T11:15:44;25.60;99.90
44117;DHT22;29781;49.480;8.512;2023-10-13T11:18:10;25.90;99.90
44117;DHT22;29781;49.480;8.512;2023-10-13T11:20:42;26.20;99.90
44117;DHT22;29781;49.480;8.512;2023-10-13T11:23:13;26.20;99.90
44117;DHT22;29781;49.480;8.512;2023-10-13T11:25:39;26.30;99.90
44117;DHT22;29781;49.480;8.512;2023-10-13T11:28:11;26.30;99.90
44117;DHT22;29781;49.480;8.512;2023-10-13T11:30:44;26.30;99.90
44117;DHT22;29781;49.480;8.512;2023-10-13T11:33:17;26.30;99.90
44117;DHT22;29781;49.480;8.512;2023-10-13T11:35:57;26.20;99.90
44117;DHT22;29781;49.480;8.512;2023-10-13T11:38:24;26.00;99.90
44117;DHT22;29781;49.480;8.512;2023-10-13T11:41:00;25.90;99.90
44117;DHT22;29781;49.480;8.512;2023-10-13T11:43:51;25.90;99.90
44117;DHT22;29781;49.480;8.512;2023-10-13T11:46:21;26.00;99.90
44117;DHT22;29781;49.480;8.512;2023-10-13T11:49:03;26.10;99.90
44117;DHT22;29781;49.480;8.512;2023-10-13T11:51:38;26.20;99.90
44117;DHT22;29781;49.480;8.512;2023-10-13T11:54:07;26.20;99.90
44117;DHT22;29781;49.480;8.512;2023-10-13T11:56:32;26.10;99.90
44117;DHT22;29781;49.480;8.512;2023-10-13T11:58:58;26.10;99.90
44117;DHT22;29781;49.480;8.512;2023-10-13T12:01:27;26.20;99.90
44117;DHT22;29781;49.480;8.512;2023-10-13T12:04:13;26.20;99.90
44117;DHT22;29781;49.480;8.512;2023-10-13T12:06:57;26.30;99.90
44117;DHT22;29781;49.480;8.512;2023-10-13T12:09:41;26.40;99.90
44117;DHT22;29781;49.480;8.512;2023-10-13T12:12:17;26.60;99.90
44117;DHT22;29781;49.480;8.512;2023-10-13T12:14:42;27.10;99.90
44117;DHT22;29781;49.480;8.512;2023-10-13T12:17:29;27.70;99.90
44117;DHT22;29781;49.480;8.512;2023-10-13T12:20:04;28.30;99.90
44117;DHT22;29781;49.480;8.512;2023-10-13T12:22:32;28.70;99.90
44117;DHT22;29781;49.480;8.512;2023-10-13T12:25:17;28.30;99.90
44117;DHT22;29781;49.480;8.512;2023-10-13T12:28:10;27.90;99.90
44117;DHT22;29781;49.480;8.512;2023-10-13T12:30:46;27.40;99.90
44117;DHT22;29781;49.480;8.512;2023-10-13T12:33:18;27.00;99.90
44117;DHT22;29781;49.480;8.512;2023-10-13T12:35:58;26.80;99.90
44117;DHT22;29781;49.480;8.512;2023-10-13T12:38:36;26.60;99.90
44117;DHT22;29781;49.480;8.512;2023-10-13T12:41:20;26.70;99.90
44117;DHT22;29781;49.480;8.512;2023-10-13T12:44:06;26.70;99.90
44117;DHT22;29781;49.480;8.512;2023-10-13T12:46:50;26.70;99.90
44117;DHT22;29781;49.480;8.512;2023-10-13T12:49:35;26.60;99.90
44117;DHT22;29781;49.480;8.512;2023-10-13T12:52:06;26.70;99.90
44117;DHT22;29781;49.480;8.512;2023-10-13T12:54:45;26.70;99.90
44117;DHT22;29781;49.480;8.512;2023-10-13T12:57:28;26.80;99.90
44117;DHT22;29781;49.480;8.512;2023-10-13T12:59:55;26.80;99.90
44117;DHT22;29781;49.480;8.512;2023-10-13T13:02:21;26.80;99.90
44117;DHT22;29781;49.480;8.512;2023-10-13T13:04:47;26.80;99.90
44117;DHT22;29781;49.480;8.512;2023-10-13T13:07:20;26.80;99.90
44117;DHT22;29781;49.480;8.512;2023-10-13T13:09:45;26.80;99.90
44117;DHT22;29781;49.480;8.512;2023-10-13T13:12:11;26.80;99.90
44117;DHT22;29781;49.480;8.512;2023-10-13T13:14:39;26.70;99.90
44117;DHT22;29781;49.480;8.512;2023-10-13T13:17:11;26.60;99.90
44117;DHT22;29781;49.480;8.512;2023-10-13T13:19:37;26.50;99.90
44117;DHT22;29781;49.480;8.512;2023-10-13T13:22:07;26.40;99.90
44117;DHT22;29781;49.480;8.512;2023-10-13T13:24:40;26.40;99.90
44117;DHT22;29781;49.480;8.512;2023-10-13T13:27:14;26.50;99.90
44117;DHT22;29781;49.480;8.512;2023-10-13T13:29:46;26.50;99.90
44117;DHT22;29781;49.480;8.512;2023-10-13T13:32:12;26.50;99.90
44117;DHT22;29781;49.480;8.512;2023-10-13T13:34:50;26.50;99.90
44117;DHT22;29781;49.480;8.512;2023-10-13T13:37:33;26.50;99.90
44117;DHT22;29781;49.480;8.512;2023-10-13T13:39:59;26.60;99.90
44117;DHT22;29781;49.480;8.512;2023-10-13T13:42:42;26.60;99.90
44117;DHT22;29781;49.480;8.512;2023-10-13T13:45:15;26.60;99.90
44117;DHT22;29781;49.480;8.512;2023-10-13T13:47:53;26.60;99.90
44117;DHT22;29781;49.480;8.512;2023-10-13T13:50:26;26.70;99.90
44117;DHT22;29781;49.480;8.512;2023-10-13T13:52:54;26.80;99.90
44117;DHT22;29781;49.480;8.512;2023-10-13T13:55:26;26.70;99.90
44117;DHT22;29781;49.480;8.512;2023-10-13T13:57:56;26.80;99.90
44117;DHT22;29781;49.480;8.512;2023-10-13T14:00:21;26.70;99.90
44117;DHT22;29781;49.480;8.512;2023-10-13T14:03:06;26.50;99.90
44117;DHT22;29781;49.480;8.512;2023-10-13T14:05:44;26.50;99.90
44117;DHT22;29781;49.480;8.512;2023-10-13T14:08:11;26.50;99.90
44117;DHT22;29781;49.480;8.512;2023-10-13T14:10:43;26.50;99.90
44117;DHT22;29781;49.480;8.512;2023-10-13T14:13:27;26.50;99.90
44117;DHT22;29781;49.480;8.512;2023-10-13T14:16:11;26.50;99.90
44117;DHT22;29781;49.480;8.512;2023-10-13T14:18:49;26.50;99.90
44117;DHT22;29781;49.480;8.512;2023-10-13T14:21:15;26.50;99.90
44117;DHT22;29781;49.480;8.512;2023-10-13T14:23:45;26.40;99.90
44117;DHT22;29781;49.480;8.512;2023-10-13T14:26:15;26.50;99.90
44117;DHT22;29781;49.480;8.512;2023-10-13T14:28:46;26.50;99.90
44117;DHT22;29781;49.480;8.512;2023-10-13T14:31:27;26.50;99.90
44117;DHT22;29781;49.480;8.512;2023-10-13T14:33:52;26.50;99.90
44117;DHT22;29781;49.480;8.512;2023-10-13T14:36:19;26.60;99.90
44117;DHT22;29781;49.480;8.512;2023-10-13T14:38:47;26.50;99.90
44117;DHT22;29781;49.480;8.512;2023-10-13T14:41:16;26.50;99.90
44117;DHT22;29781;49.480;8.512;2023-10-13T14:43:43;26.50;99.90
44117;DHT22;29781;49.480;8.512;2023-10-13T14:46:18;26.40;99.90
44117;DHT22;29781;49.480;8.512;2023-10-13T14:48:51;26.40;99.90
44117;DHT22;29781;49.480;8.512;2023-10-13T14:51:16;26.30;99.90
44117;DHT22;29781;49.480;8.512;2023-10-13T14:53:45;26.30;99.90
44117;DHT22;29781;49.480;8.512;2023-10-13T14:56:11;26.30;99.90
44117;DHT22;29781;49.480;8.512;2023-10-13T14:58:41;26.30;99.90
44117;DHT22;29781;49.480;8.512;2023-10-13T15:01:20;26.30;99.90
44117;DHT22;29781;49.480;8.512;2023-10-13T15:03:51;26.30;99.90
44117;DHT22;29781;49.480;8.512;2023-10-13T15:06:27;26.30;99.90
44117;DHT22;29781;49.480;8.512;2023-10-13T15:09:02;26.40;99.90
44117;DHT22;29781;49.480;8.512;2023-10-13T15:11:29;26.40;99.70
44117;DHT22;29781;49.480;8.512;2023-10-13T15:14:04;26.40;99.90
44117;DHT22;29781;49.480;8.512;2023-10-13T15:16:32;26.50;99.70
44117;DHT22;29781;49.480;8.512;2023-10-13T15:18:59;26.50;99.30
44117;DHT22;29781;49.480;8.512;2023-10-13T15:21:29;26.60;99.50
44117;DHT22;29781;49.480;8.512;2023-10-13T15:24:06;26.60;99.60
44117;DHT22;29781;49.480;8.512;2023-10-13T15:26:52;26.70;99.90
44117;DHT22;29781;49.480;8.512;2023-10-13T15:29:27;26.70;99.90
44117;DHT22;29781;49.480;8.512;2023-10-13T15:32:00;26.70;99.90
44117;DHT22;29781;49.480;8.512;2023-10-13T15:34:26;26.60;99.80
44117;DHT22;29781;49.480;8.512;2023-10-13T15:36:53;26.60;99.80
44117;DHT22;29781;49.480;8.512;2023-10-13T15:39:20;26.60;99.40
44117;DHT22;29781;49.480;8.512;2023-10-13T15:41:57;26.60;99.40
44117;DHT22;29781;49.480;8.512;2023-10-13T15:44:27;26.50;99.80
44117;DHT22;29781;49.480;8.512;2023-10-13T15:46:58;26.50;99.70
44117;DHT22;29781;49.480;8.512;2023-10-13T15:49:24;26.50;99.60
44117;DHT22;29781;49.480;8.512;2023-10-13T15:51:54;26.40;99.60
44117;DHT22;29781;49.480;8.512;2023-10-13T15:54:22;26.40;99.40
44117;DHT22;29781;49.480;8.512;2023-10-13T15:56:49;26.30;99.40
44117;DHT22;29781;49.480;8.512;2023-10-13T15:59:16;26.30;99.50
44117;DHT22;29781;49.480;8.512;2023-10-13T16:01:41;26.30;99.50
44117;DHT22;29781;49.480;8.512;2023-10-13T16:04:08;26.20;99.70
44117;DHT22;29781;49.480;8.512;2023-10-13T16:06:38;26.10;99.80
44117;DHT22;29781;49.480;8.512;2023-10-13T16:09:03;26.10;99.90
44117;DHT22;29781;49.480;8.512;2023-10-13T16:11:29;26.00;99.90
44117;DHT22;29781;49.480;8.512;2023-10-13T16:13:54;26.00;99.90
44117;DHT22;29781;49.480;8.512;2023-10-13T16:16:21;25.90;99.90